Weather at Kurov Airstrip

Public forecast

Using degrees Celsius for public forecast. Weather courtesy of forecast.io.

Closest aviation weather report (METAR) to Kurov Airstrip

Closest report is Poprad-Tatry Airport, 39.0 nm (72.2 km) WSW.

2024/05/21 07:30 (retrieved 11 minutes ago)

LZTT 210730Z 11004KT 010V170 9999 FEW040 17/12 Q1015 NOSIG

Closest aviation forecast (TAF) to Kurov Airstrip

Closest forecast is Poprad-Tatry Airport, 39.0 nm (72.2 km) WSW.

2024/05/21 06:16 (retrieved 1 hour ago)

TAF LZTT 210515Z 2106/2206 24004KT 9999 FEW040 TEMPO 2106/2107 2000 BCFG SCT002 BECMG 2107/2109 10008KT TEMPO 2112/2206 TSRA SCT027CB BKN035 BECMG 2116/2118 36006KT